createdAt,value
2023-05-25T00:01:03.149Z,14.39
2023-05-25T00:06:05.797Z,14.43
2023-05-25T00:11:07.728Z,14.44
2023-05-25T00:16:09.484Z,14.41
2023-05-25T00:21:11.980Z,14.39
2023-05-25T00:26:13.722Z,14.39
2023-05-25T00:31:15.705Z,14.37
2023-05-25T00:36:18.200Z,14.35
2023-05-25T00:41:20.940Z,14.33
2023-05-25T00:46:23.866Z,14.33
2023-05-25T00:51:26.462Z,14.37
2023-05-25T00:56:33.130Z,14.42
2023-05-25T01:01:40.295Z,14.39
2023-05-25T01:06:47.150Z,14.35
2023-05-25T01:11:51.374Z,14.34
2023-05-25T01:16:55.358Z,14.35
2023-05-25T01:22:08.102Z,14.31
2023-05-25T01:27:21.223Z,14.29
2023-05-25T01:32:25.004Z,14.26
2023-05-25T01:37:27.863Z,14.22
2023-05-25T01:42:31.858Z,14.18
2023-05-25T01:48:11.683Z,14.20
2023-05-25T01:53:23.907Z,14.26
2023-05-25T01:58:27.447Z,14.31
2023-05-25T02:03:29.333Z,14.23
2023-05-25T02:08:31.278Z,14.20
2023-05-25T02:13:34.956Z,14.21
2023-05-25T02:18:37.234Z,14.23
2023-05-25T02:23:39.057Z,14.14
2023-05-25T02:28:41.271Z,14.07
2023-05-25T02:33:43.087Z,13.98
2023-05-25T02:38:45.614Z,13.94
2023-05-25T02:43:48.144Z,13.97
2023-05-25T02:48:50.688Z,13.92
2023-05-25T02:53:53.309Z,13.87
2023-05-25T02:58:55.529Z,13.95
2023-05-25T03:04:15.616Z,14.00
2023-05-25T03:09:18.586Z,14.05
2023-05-25T03:14:22.565Z,14.13
2023-05-25T03:19:29.671Z,14.20
2023-05-25T03:24:31.493Z,14.26
2023-05-25T03:29:35.945Z,14.21
2023-05-25T03:34:38.396Z,14.22
2023-05-25T03:39:40.547Z,14.21
2023-05-25T03:44:42.898Z,13.92
2023-05-25T03:49:45.172Z,13.83
2023-05-25T03:54:48.055Z,13.69
2023-05-25T03:59:50.124Z,13.60
2023-05-25T04:07:13.464Z,13.06
2023-05-25T04:12:15.304Z,13.00
2023-05-25T04:17:19.096Z,13.03
2023-05-25T04:22:21.405Z,12.99
2023-05-25T04:27:23.268Z,13.05
2023-05-25T04:32:29.872Z,13.03
2023-05-25T04:38:12.452Z,13.02
2023-05-25T04:43:18.180Z,12.91
2023-05-25T04:48:21.615Z,13.03
2023-05-25T04:53:23.702Z,13.02
2023-05-25T04:58:26.191Z,13.04
2023-05-25T05:03:38.140Z,13.05
2023-05-25T05:08:41.802Z,12.98
2023-05-25T05:13:48.231Z,13.03
2023-05-25T05:18:50.660Z,13.13
2023-05-25T05:23:52.583Z,13.15
2023-05-25T05:28:54.663Z,13.22
2023-05-25T05:33:57.436Z,13.26
2023-05-25T05:39:01.059Z,13.31
2023-05-25T05:44:03.696Z,13.21
2023-05-25T05:49:05.458Z,13.36
2023-05-25T05:54:07.225Z,13.51
2023-05-25T05:59:11.806Z,13.58
2023-05-25T06:04:15.032Z,13.44
2023-05-25T06:09:17.806Z,13.46
2023-05-25T06:14:19.658Z,13.36
2023-05-25T06:19:21.529Z,13.16
2023-05-25T06:24:23.284Z,12.99
2023-05-25T06:29:25.246Z,13.00
2023-05-25T06:34:27.234Z,13.07
2023-05-25T06:39:29.212Z,13.11
2023-05-25T06:44:31.103Z,13.16
2023-05-25T06:49:36.734Z,13.26
2023-05-25T06:54:38.553Z,13.35
2023-05-25T06:59:40.468Z,13.40
2023-05-25T07:04:42.444Z,13.30
2023-05-25T07:09:44.334Z,13.43
2023-05-25T07:14:48.385Z,13.70
2023-05-25T07:19:50.123Z,14.04
2023-05-25T07:24:51.834Z,14.25
2023-05-25T07:29:53.921Z,14.37
2023-05-25T07:34:55.987Z,14.37
2023-05-25T07:39:57.983Z,14.31
2023-05-25T07:45:01.298Z,14.52
2023-05-25T07:50:03.244Z,14.60
2023-05-25T07:55:09.002Z,14.70
2023-05-25T08:00:12.782Z,14.63
2023-05-25T08:05:17.282Z,14.62
2023-05-25T08:10:19.407Z,14.54
2023-05-25T08:15:21.391Z,14.53
2023-05-25T08:20:25.237Z,14.52
2023-05-25T08:25:26.985Z,14.98
2023-05-25T08:30:29.264Z,15.51
2023-05-25T08:35:31.082Z,15.80
2023-05-25T08:40:32.810Z,16.00
2023-05-25T08:45:36.712Z,15.98
2023-05-25T08:50:41.366Z,15.80
2023-05-25T08:55:44.066Z,15.36
2023-05-25T09:00:55.811Z,15.26
2023-05-25T09:05:58.170Z,15.35
2023-05-25T09:11:02.422Z,15.57
2023-05-25T09:16:04.906Z,15.58
2023-05-25T09:21:06.615Z,15.53
2023-05-25T09:26:08.940Z,15.81
2023-05-25T09:31:10.973Z,16.21
2023-05-25T09:36:15.402Z,16.38
2023-05-25T09:41:17.213Z,16.41
2023-05-25T09:46:19.037Z,16.50
2023-05-25T09:51:21.758Z,16.50
2023-05-25T09:56:24.725Z,16.63
2023-05-25T10:01:27.358Z,16.97
2023-05-25T10:06:29.505Z,17.31
2023-05-25T10:11:33.920Z,17.69
2023-05-25T10:16:41.449Z,17.51
2023-05-25T10:22:14.082Z,17.25
2023-05-25T10:32:44.517Z,17.65
2023-05-25T10:37:47.732Z,17.92
2023-05-25T10:42:52.297Z,17.91
2023-05-25T10:47:54.134Z,17.84
2023-05-25T10:53:00.142Z,17.90
2023-05-25T10:58:10.482Z,18.24
2023-05-25T11:03:12.350Z,18.09
2023-05-25T11:08:17.764Z,17.89
2023-05-25T11:13:31.652Z,18.24
2023-05-25T11:18:41.637Z,18.48
2023-05-25T11:24:00.081Z,18.48
2023-05-25T11:29:15.938Z,18.73
2023-05-25T11:34:18.807Z,18.84
2023-05-25T11:39:23.406Z,18.75
2023-05-25T11:44:33.915Z,18.64
2023-05-25T11:49:42.040Z,18.38
2023-05-25T11:54:44.799Z,17.98
2023-05-25T12:00:02.054Z,17.68
2023-05-25T12:05:08.500Z,17.72
2023-05-25T12:10:13.078Z,17.85
2023-05-25T12:15:25.816Z,17.76
2023-05-25T12:20:27.776Z,17.86
2023-05-25T12:25:46.090Z,18.07
2023-05-25T12:30:52.041Z,18.11
2023-05-25T12:35:55.776Z,18.32
2023-05-25T12:41:07.967Z,18.37
2023-05-25T12:46:10.075Z,18.26
2023-05-25T12:51:12.310Z,18.21
2023-05-25T12:56:14.076Z,18.05
2023-05-25T13:01:16.092Z,17.90
2023-05-25T13:06:18.078Z,17.82
2023-05-25T13:11:19.795Z,17.86
2023-05-25T13:16:21.623Z,17.89
2023-05-25T13:21:23.617Z,18.07
2023-05-25T13:26:25.765Z,18.26
2023-05-25T13:31:27.821Z,18.41
2023-05-25T13:36:29.971Z,18.52
2023-05-25T13:41:31.761Z,18.86
2023-05-25T13:46:35.386Z,19.15
2023-05-25T13:51:38.356Z,19.18
2023-05-25T13:56:42.425Z,19.29
2023-05-25T14:01:44.356Z,19.36
2023-05-25T14:06:46.527Z,19.37
2023-05-25T14:11:48.500Z,19.32
2023-05-25T14:16:50.249Z,19.11
2023-05-25T14:22:11.220Z,19.06
2023-05-25T14:27:21.285Z,19.02
2023-05-25T14:32:22.997Z,18.85
2023-05-25T14:37:24.795Z,18.73
2023-05-25T14:42:27.147Z,18.74
2023-05-25T14:47:28.948Z,18.90
2023-05-25T14:52:30.800Z,19.00
2023-05-25T14:57:32.534Z,18.89
2023-05-25T15:02:34.368Z,18.65
2023-05-25T15:07:36.278Z,18.32
2023-05-25T15:12:38.054Z,18.16
2023-05-25T15:17:40.138Z,18.06
2023-05-25T15:22:42.036Z,18.13
2023-05-25T15:27:43.777Z,18.32
2023-05-25T15:32:45.534Z,18.51
2023-05-25T15:37:48.334Z,18.52
2023-05-25T15:42:50.368Z,18.52
2023-05-25T15:47:52.217Z,18.40
2023-05-25T15:52:54.073Z,18.20
2023-05-25T15:57:55.830Z,17.89
2023-05-25T16:02:58.283Z,17.63
2023-05-25T16:08:00.100Z,17.49
2023-05-25T16:13:01.887Z,17.46
2023-05-25T16:18:03.885Z,17.63
2023-05-25T16:23:06.451Z,17.81
2023-05-25T16:28:08.135Z,17.77
2023-05-25T16:33:09.944Z,17.79
2023-05-25T16:38:11.674Z,17.76
2023-05-25T16:43:13.381Z,17.71
2023-05-25T16:48:15.431Z,17.67
2023-05-25T16:53:17.285Z,17.61
2023-05-25T16:58:19.025Z,17.45
2023-05-25T17:03:20.734Z,17.42
2023-05-25T17:08:22.604Z,17.35
2023-05-25T17:13:24.291Z,17.25
2023-05-25T17:18:26.966Z,17.04
2023-05-25T17:23:28.803Z,16.84
2023-05-25T17:28:32.870Z,16.79
2023-05-25T17:33:34.639Z,16.74
2023-05-25T17:38:38.100Z,16.71
2023-05-25T17:43:39.800Z,16.69
2023-05-25T17:48:41.458Z,16.71
2023-05-25T17:53:43.150Z,16.70
2023-05-25T17:58:47.642Z,16.63
2023-05-25T18:03:53.953Z,16.55
2023-05-25T18:08:56.655Z,16.43
2023-05-25T18:13:58.446Z,16.34
2023-05-25T18:19:00.222Z,16.31
2023-05-25T18:24:01.923Z,16.35
2023-05-25T18:29:03.715Z,16.39
2023-05-25T18:34:06.918Z,16.39
2023-05-25T18:39:08.700Z,16.33
2023-05-25T18:44:10.492Z,16.29
2023-05-25T18:49:12.677Z,16.23
2023-05-25T18:54:14.397Z,16.23
2023-05-25T18:59:16.508Z,16.18
2023-05-25T19:04:18.421Z,16.12
2023-05-25T19:09:20.158Z,16.06
2023-05-25T19:14:21.890Z,15.94
2023-05-25T19:19:23.607Z,15.88
2023-05-25T19:24:25.311Z,15.85
2023-05-25T19:29:27.125Z,15.77
2023-05-25T19:34:28.863Z,15.63
2023-05-25T19:39:31.787Z,15.56
2023-05-25T19:44:33.468Z,15.44
2023-05-25T19:49:35.219Z,15.36
2023-05-25T19:54:38.078Z,15.29
2023-05-25T19:59:39.847Z,15.24
2023-05-25T20:04:41.520Z,15.21
2023-05-25T20:09:44.076Z,15.18
2023-05-25T20:14:45.754Z,15.17
2023-05-25T20:19:47.502Z,15.12
2023-05-25T20:24:50.167Z,15.04
2023-05-25T20:29:51.950Z,14.95
2023-05-25T20:34:53.646Z,14.89
2023-05-25T20:39:55.618Z,14.81
2023-05-25T20:45:00.165Z,14.77
2023-05-25T20:50:01.911Z,14.67
2023-05-25T20:55:03.940Z,14.63
2023-05-25T21:00:06.749Z,14.53
2023-05-25T21:05:09.063Z,14.54
2023-05-25T21:10:11.513Z,14.52
2023-05-25T21:15:19.118Z,14.51
2023-05-25T21:20:21.109Z,14.51
2023-05-25T21:25:22.998Z,14.53
2023-05-25T21:30:24.776Z,14.61
2023-05-25T21:35:26.597Z,14.64
2023-05-25T21:40:28.688Z,14.75
2023-05-25T21:45:31.240Z,14.83
2023-05-25T21:50:33.070Z,14.89
2023-05-25T21:55:54.837Z,14.91
2023-05-25T22:00:56.655Z,14.91
2023-05-25T22:05:58.565Z,14.95
2023-05-25T22:11:00.314Z,14.97
2023-05-25T22:16:02.077Z,14.94
2023-05-25T22:21:03.878Z,14.92
2023-05-25T22:26:05.828Z,15.04
2023-05-25T22:31:07.625Z,15.15
2023-05-25T22:36:09.376Z,15.24
2023-05-25T22:41:11.453Z,15.29
2023-05-25T22:46:13.242Z,15.28
2023-05-25T22:51:17.795Z,15.18
2023-05-25T22:56:19.504Z,15.14
2023-05-25T23:01:21.373Z,15.16
2023-05-25T23:06:23.198Z,15.16
2023-05-25T23:11:27.115Z,15.15
2023-05-25T23:16:29.507Z,15.09
2023-05-25T23:21:31.642Z,14.92
2023-05-25T23:26:33.686Z,14.78
2023-05-25T23:31:35.527Z,14.76
2023-05-25T23:36:37.339Z,14.78
2023-05-25T23:41:39.059Z,14.88
2023-05-25T23:46:41.865Z,14.94
2023-05-25T23:51:45.858Z,14.93
2023-05-25T23:56:49.544Z,14.84
